Time;durP1;ratioP1;P1;durP2;ratioP2;P2;SDS_P1;SDS_P2;PMS_P1;PMS_P2;Temp;Humidity;BMP_temperature;BMP_pressure;BME280_temperature;BME280_humidity;BME280_pressure;Samples;Min_cycle;Max_cycle;Signal;HPM_P1;HPM_P2
2023/03/12 00:00:40;;;;;;;1.70;1.60;;;18.40;38.30;;;;;;4996595;28;20479;-77
2023/03/12 00:03:06;;;;;;;1.50;1.40;;;18.40;38.30;;;;;;4986117;28;20223;-79
2023/03/12 00:05:31;;;;;;;2.50;1.40;;;18.40;38.30;;;;;;4978903;28;20454;-78
2023/03/12 00:07:58;;;;;;;1.67;1.57;;;18.40;38.30;;;;;;4997123;28;20207;-78
2023/03/12 00:10:25;;;;;;;1.80;1.70;;;18.40;38.30;;;;;;4978970;28;20317;-78
2023/03/12 00:12:51;;;;;;;1.63;1.53;;;18.40;38.30;;;;;;4993658;28;20472;-78
2023/03/12 00:15:16;;;;;;;1.40;1.30;;;18.40;38.30;;;;;;4980728;28;20424;-78
2023/03/12 00:17:42;;;;;;;1.50;1.40;;;18.40;38.30;;;;;;4986066;28;20216;-78
2023/03/12 00:20:08;;;;;;;1.60;1.50;;;18.40;38.30;;;;;;4991552;28;20239;-78
2023/03/12 00:22:34;;;;;;;2.10;2.00;;;18.40;38.30;;;;;;4991644;28;20255;-78
2023/03/12 00:25:00;;;;;;;2.60;1.40;;;18.40;38.30;;;;;;4997379;28;20531;-78
2023/03/12 00:27:26;;;;;;;1.40;1.30;;;18.40;38.30;;;;;;4991092;28;20219;-78
2023/03/12 00:29:52;;;;;;;1.40;1.30;;;18.40;38.30;;;;;;4997051;28;20351;-77
2023/03/12 00:32:18;;;;;;;1.40;1.30;;;18.40;38.30;;;;;;4995198;28;20551;-77
2023/03/12 00:34:49;;;;;;;1.60;1.50;;;18.40;38.30;;;;;;4991079;28;20461;-78
2023/03/12 00:37:14;;;;;;;1.67;1.57;;;18.40;38.30;;;;;;4975627;28;20958;-78
2023/03/12 00:39:40;;;;;;;1.60;1.43;;;18.40;38.30;;;;;;4989032;28;20552;-78
2023/03/12 00:42:05;;;;;;;1.73;1.50;;;18.40;38.30;;;;;;4995885;28;20226;-78
2023/03/12 00:44:31;;;;;;;1.57;1.47;;;18.40;38.30;;;;;;4995931;28;20224;-78
2023/03/12 00:46:56;;;;;;;1.63;1.53;;;18.40;38.30;;;;;;4987012;28;20366;-78
2023/03/12 00:49:22;;;;;;;1.53;1.43;;;18.40;38.30;;;;;;4995281;28;20227;-78
2023/03/12 00:51:47;;;;;;;1.70;1.60;;;18.40;38.30;;;;;;4993628;28;20652;-75
2023/03/12 00:54:13;;;;;;;1.53;1.40;;;18.40;38.30;;;;;;4998254;28;20223;-78
2023/03/12 00:56:38;;;;;;;1.77;1.57;;;18.40;38.20;;;;;;5000233;28;20227;-78
2023/03/12 00:59:04;;;;;;;1.53;1.43;;;18.40;38.30;;;;;;4995308;28;20695;-78
2023/03/12 01:01:29;;;;;;;1.63;1.53;;;18.40;38.30;;;;;;5000458;28;22689;-78
2023/03/12 01:03:57;;;;;;;1.80;1.70;;;18.40;38.30;;;;;;4993677;28;20750;-78
2023/03/12 01:06:22;;;;;;;1.70;1.60;;;18.40;38.30;;;;;;4996621;28;20223;-78
2023/03/12 01:08:48;;;;;;;1.43;1.33;;;18.40;38.30;;;;;;4980530;28;20450;-78
2023/03/12 01:11:16;;;;;;;1.53;1.43;;;18.40;38.30;;;;;;4993071;28;21055;-77
2023/03/12 01:13:42;;;;;;;1.60;1.50;;;18.40;38.30;;;;;;4992710;28;20232;-78
2023/03/12 01:16:07;;;;;;;1.50;1.40;;;18.40;38.30;;;;;;4981685;28;20604;-78
2023/03/12 01:18:33;;;;;;;1.60;1.50;;;18.40;38.30;;;;;;4993011;28;20247;-78
2023/03/12 01:20:58;;;;;;;1.67;1.57;;;18.30;38.20;;;;;;4998588;28;20239;-78
2023/03/12 01:23:25;;;;;;;1.80;1.70;;;18.40;38.30;;;;;;4991187;28;20231;-78
2023/03/12 01:25:54;;;;;;;2.63;1.77;;;18.40;38.30;;;;;;4983472;28;20234;-78
2023/03/12 01:28:20;;;;;;;1.60;1.50;;;18.40;38.30;;;;;;4984184;28;20857;-78
2023/03/12 01:30:45;;;;;;;1.40;1.30;;;18.40;38.20;;;;;;4997904;28;20479;-78
2023/03/12 01:33:11;;;;;;;1.60;1.50;;;18.30;38.10;;;;;;4991966;28;20956;-78
2023/03/12 01:35:38;;;;;;;1.60;1.50;;;18.40;38.30;;;;;;5010971;28;20220;-78
2023/03/12 01:38:05;;;;;;;1.67;1.57;;;18.30;38.20;;;;;;4989858;28;20220;-78
2023/03/12 01:40:34;;;;;;;1.90;1.80;;;18.40;38.40;;;;;;4981682;28;20456;-78
2023/03/12 01:43:31;;;;;;;1.70;1.60;;;18.40;38.20;;;;;;4976654;28;20611;-78
2023/03/12 01:46:21;;;;;;;1.90;1.80;;;18.40;38.20;;;;;;4989926;28;20559;-78
2023/03/12 01:49:01;;;;;;;1.50;1.40;;;18.40;38.30;;;;;;4993098;28;20481;-78
2023/03/12 01:51:33;;;;;;;1.60;1.50;;;18.30;38.20;;;;;;4986996;28;20460;-78
2023/03/12 01:54:04;;;;;;;1.50;1.40;;;18.30;38.20;;;;;;4994071;28;20465;-77
2023/03/12 01:56:33;;;;;;;1.60;1.50;;;18.30;38.20;;;;;;4996324;28;20439;-78
2023/03/12 01:59:02;;;;;;;1.50;1.40;;;18.30;38.30;;;;;;5016045;28;21081;-75
2023/03/12 02:01:28;;;;;;;1.60;1.50;;;18.30;38.20;;;;;;4976967;28;21335;-72
2023/03/12 02:03:57;;;;;;;2.90;1.70;;;18.30;38.20;;;;;;4987224;28;20445;-72
2023/03/12 02:06:31;;;;;;;1.80;1.70;;;18.30;38.20;;;;;;4996858;28;20459;-78
2023/03/12 02:09:00;;;;;;;2.00;1.90;;;18.30;38.20;;;;;;4993004;28;20467;-75
2023/03/12 02:11:25;;;;;;;1.60;1.50;;;18.30;38.20;;;;;;4981821;28;21021;-74
2023/03/12 02:13:51;;;;;;;1.50;1.40;;;18.30;38.20;;;;;;4989721;28;20473;-74
2023/03/12 02:16:16;;;;;;;1.80;1.70;;;18.30;38.20;;;;;;4992789;28;20231;-78
2023/03/12 02:18:43;;;;;;;1.60;1.50;;;18.30;38.20;;;;;;4984774;28;20230;-76
2023/03/12 02:21:26;;;;;;;1.60;1.50;;;18.30;38.20;;;;;;4994772;28;20317;-75
2023/03/12 02:24:32;;;;;;;1.73;1.60;;;18.30;38.20;;;;;;4999141;28;20438;-79
2023/03/12 02:26:58;;;;;;;1.93;1.80;;;18.30;38.20;;;;;;4994780;28;20822;-75
2023/03/12 02:29:27;;;;;;;1.70;1.60;;;18.40;38.30;;;;;;4995959;28;20472;-75
2023/03/12 02:31:56;;;;;;;1.50;1.40;;;18.30;38.20;;;;;;4994659;28;20262;-76
2023/03/12 02:34:22;;;;;;;1.60;1.50;;;18.30;38.20;;;;;;4999679;28;20535;-76
2023/03/12 02:36:48;;;;;;;1.60;1.50;;;18.30;38.20;;;;;;4998737;28;20449;-75
2023/03/12 02:39:14;;;;;;;1.80;1.70;;;18.30;39.00;;;;;;4997172;28;20236;-75
2023/03/12 02:41:54;;;;;;;1.50;1.40;;;18.30;38.30;;;;;;4996453;28;20469;-75
2023/03/12 02:44:22;;;;;;;1.70;1.60;;;18.30;38.20;;;;;;4995486;28;20435;-76
2023/03/12 02:46:52;;;;;;;2.33;2.03;;;18.30;38.20;;;;;;4996026;28;21302;-75
2023/03/12 02:49:19;;;;;;;1.60;1.50;;;18.30;38.20;;;;;;4989665;28;20447;-75
2023/03/12 02:51:46;;;;;;;1.97;1.73;;;18.30;38.20;;;;;;5001980;28;20436;-75
2023/03/12 02:54:13;;;;;;;2.70;1.77;;;18.30;39.00;;;;;;4999000;28;20469;-76
2023/03/12 02:56:39;;;;;;;1.80;1.70;;;18.30;38.20;;;;;;4984148;28;20453;-76
2023/03/12 02:59:06;;;;;;;2.17;1.60;;;18.30;38.20;;;;;;4990165;28;20471;-76
2023/03/12 03:01:32;;;;;;;1.60;1.50;;;18.30;38.20;;;;;;4994938;28;20453;-76
2023/03/12 03:03:58;;;;;;;1.97;1.87;;;18.30;38.20;;;;;;4995038;28;20515;-76
2023/03/12 03:06:24;;;;;;;1.50;1.40;;;18.30;38.20;;;;;;4993522;28;21059;-76
2023/03/12 03:08:50;;;;;;;1.93;1.83;;;18.30;38.20;;;;;;4994368;28;21025;-76
2023/03/12 03:11:15;;;;;;;1.63;1.53;;;18.30;38.10;;;;;;4989270;28;24443;-76
2023/03/12 03:13:41;;;;;;;1.53;1.43;;;18.30;38.20;;;;;;4987661;28;20231;-78
2023/03/12 03:16:07;;;;;;;1.97;1.57;;;18.30;38.20;;;;;;4983765;28;20247;-78
2023/03/12 03:18:32;;;;;;;1.40;1.30;;;18.30;38.20;;;;;;4991554;28;20231;-76
2023/03/12 03:21:04;;;;;;;1.57;1.47;;;18.30;38.20;;;;;;4992392;28;20321;-76
2023/03/12 03:23:30;;;;;;;1.63;1.53;;;18.30;38.20;;;;;;4993405;28;20251;-77
2023/03/12 03:25:55;;;;;;;1.50;1.40;;;18.30;38.20;;;;;;4985424;28;20572;-77
2023/03/12 03:28:23;;;;;;;1.60;1.50;;;18.30;38.10;;;;;;4993335;28;20490;-78
2023/03/12 03:30:52;;;;;;;1.60;1.50;;;18.30;38.20;;;;;;4993383;28;20481;-78
2023/03/12 03:33:18;;;;;;;1.60;1.50;;;18.30;38.20;;;;;;4992611;28;20455;-78
2023/03/12 03:35:44;;;;;;;1.50;1.40;;;18.30;38.30;;;;;;5000809;28;20452;-79
2023/03/12 03:38:09;;;;;;;1.43;1.33;;;18.30;38.30;;;;;;4997727;28;20231;-77
2023/03/12 03:40:35;;;;;;;1.63;1.53;;;18.30;38.20;;;;;;4994366;28;20240;-77
2023/03/12 03:43:01;;;;;;;1.60;1.50;;;18.30;38.20;;;;;;4996613;28;20254;-77
2023/03/12 03:45:26;;;;;;;1.50;1.40;;;18.30;38.20;;;;;;4994705;28;20588;-80
2023/03/12 03:47:52;;;;;;;1.53;1.43;;;18.30;38.20;;;;;;4994314;28;21110;-78
2023/03/12 03:50:18;;;;;;;1.80;1.70;;;18.30;38.20;;;;;;4991557;28;20334;-76
2023/03/12 03:52:43;;;;;;;1.60;1.50;;;18.30;38.20;;;;;;4984723;28;21005;-77
2023/03/12 03:55:09;;;;;;;1.60;1.50;;;18.30;38.10;;;;;;4989032;28;20227;-79
2023/03/12 03:57:34;;;;;;;1.80;1.70;;;18.30;38.20;;;;;;4986798;28;20752;-78
2023/03/12 04:00:00;;;;;;;1.60;1.50;;;18.30;38.20;;;;;;4981697;28;20228;-77
2023/03/12 04:02:27;;;;;;;1.40;1.30;;;18.30;38.20;;;;;;4998210;28;20223;-78
2023/03/12 04:04:56;;;;;;;1.60;1.50;;;18.30;38.20;;;;;;4984540;28;20223;-77
2023/03/12 04:07:22;;;;;;;1.50;1.40;;;18.30;38.20;;;;;;4994430;28;20515;-78
2023/03/12 04:09:48;;;;;;;1.90;1.80;;;18.30;38.20;;;;;;4985511;28;20585;-77
2023/03/12 04:12:13;;;;;;;1.83;1.50;;;18.30;38.10;;;;;;4998106;28;20239;-78
2023/03/12 04:14:40;;;;;;;1.53;1.43;;;18.30;38.20;;;;;;4987471;28;20231;-78
2023/03/12 04:17:06;;;;;;;1.70;1.60;;;18.30;38.20;;;;;;4995471;28;21599;-77
2023/03/12 04:19:31;;;;;;;1.60;1.50;;;18.30;38.20;;;;;;4984232;28;21002;-77
2023/03/12 04:21:57;;;;;;;1.40;1.30;;;18.30;38.20;;;;;;4992149;28;20223;-77
2023/03/12 04:24:22;;;;;;;1.80;1.70;;;18.30;38.20;;;;;;5012413;28;20274;-77
2023/03/12 04:26:48;;;;;;;2.07;1.60;;;18.30;38.10;;;;;;4996540;28;20273;-76
2023/03/12 04:29:13;;;;;;;3.00;1.47;;;18.30;38.20;;;;;;4988519;28;20577;-77
2023/03/12 04:31:39;;;;;;;1.60;1.50;;;18.30;38.20;;;;;;4993630;28;20227;-77
2023/03/12 04:34:05;;;;;;;1.40;1.30;;;18.30;38.20;;;;;;4992096;28;20612;-77
2023/03/12 04:36:30;;;;;;;1.70;1.60;;;18.30;38.20;;;;;;4995302;28;20671;-77
2023/03/12 04:38:56;;;;;;;1.70;1.60;;;18.30;38.10;;;;;;4978545;28;20571;-76
2023/03/12 04:41:22;;;;;;;1.50;1.40;;;18.30;38.10;;;;;;4989498;28;20235;-76
2023/03/12 04:43:47;;;;;;;1.33;1.23;;;18.30;38.20;;;;;;4994708;28;20291;-76
2023/03/12 04:46:14;;;;;;;1.30;1.20;;;18.30;38.20;;;;;;4996692;28;20235;-77
2023/03/12 04:48:39;;;;;;;2.17;1.60;;;18.30;38.10;;;;;;4989590;28;21576;-77
2023/03/12 04:51:05;;;;;;;1.50;1.40;;;18.30;38.00;;;;;;4987869;28;20581;-77
2023/03/12 04:53:31;;;;;;;1.63;1.53;;;18.30;38.00;;;;;;4992883;28;20282;-77
2023/03/12 04:55:57;;;;;;;1.70;1.60;;;18.30;38.00;;;;;;4982876;28;20648;-78
2023/03/12 04:58:22;;;;;;;1.60;1.50;;;18.30;38.00;;;;;;4988061;28;20231;-79
2023/03/12 05:00:49;;;;;;;2.17;1.83;;;18.30;38.00;;;;;;4999160;28;20251;-78
2023/03/12 05:03:15;;;;;;;1.50;1.40;;;18.30;37.90;;;;;;4998392;28;20230;-80
2023/03/12 05:05:41;;;;;;;1.60;1.50;;;18.30;38.00;;;;;;4990078;28;20453;-79
2023/03/12 05:08:06;;;;;;;1.30;1.20;;;18.30;37.80;;;;;;4996994;28;20473;-79
2023/03/12 05:10:32;;;;;;;1.13;1.03;;;18.40;38.00;;;;;;4990256;28;20220;-79
2023/03/12 05:12:58;;;;;;;1.53;1.30;;;18.40;37.90;;;;;;4980047;28;20267;-79
2023/03/12 05:15:23;;;;;;;1.63;1.53;;;18.40;38.00;;;;;;4998524;28;20228;-78
2023/03/12 05:17:49;;;;;;;1.30;1.20;;;18.40;38.00;;;;;;4996844;28;20230;-78
2023/03/12 05:20:16;;;;;;;1.50;1.40;;;18.40;37.90;;;;;;4993836;28;20227;-78
2023/03/12 05:22:42;;;;;;;1.63;1.50;;;18.40;37.90;;;;;;4992126;28;20243;-79
2023/03/12 05:25:08;;;;;;;1.93;1.43;;;18.40;37.90;;;;;;4994892;28;23358;-78
2023/03/12 05:27:36;;;;;;;1.40;1.30;;;18.40;37.80;;;;;;4999142;28;20951;-78
2023/03/12 05:30:03;;;;;;;1.60;1.50;;;18.40;37.80;;;;;;4997034;28;20456;-78
2023/03/12 05:32:29;;;;;;;1.50;1.40;;;18.40;37.90;;;;;;4997446;28;20469;-77
2023/03/12 05:34:54;;;;;;;1.47;1.37;;;18.40;38.00;;;;;;5001616;28;20465;-78
2023/03/12 05:37:20;;;;;;;1.50;1.40;;;18.40;37.90;;;;;;4991006;28;20307;-77
2023/03/12 05:39:45;;;;;;;1.30;1.20;;;18.40;37.90;;;;;;4988439;28;20235;-78
2023/03/12 05:42:12;;;;;;;2.53;1.33;;;18.40;38.70;;;;;;5000294;28;20231;-78
2023/03/12 05:44:38;;;;;;;1.50;1.40;;;18.40;37.80;;;;;;4999529;28;20230;-78
2023/03/12 05:47:05;;;;;;;1.50;1.40;;;18.40;37.80;;;;;;4992547;28;20458;-78
2023/03/12 05:49:30;;;;;;;1.40;1.30;;;18.40;37.80;;;;;;4997062;28;20447;-78
2023/03/12 05:51:56;;;;;;;1.50;1.40;;;18.40;37.80;;;;;;4998502;28;20974;-71
2023/03/12 05:54:22;;;;;;;1.67;1.57;;;18.40;37.80;;;;;;4994763;28;20230;-75
2023/03/12 05:56:47;;;;;;;1.60;1.50;;;18.40;38.70;;;;;;5000516;28;20248;-75
2023/03/12 05:59:13;;;;;;;1.37;1.27;;;18.40;37.80;;;;;;5003758;28;20719;-75
2023/03/12 06:01:39;;;;;;;1.43;1.33;;;18.40;37.80;;;;;;5000464;28;20318;-76
2023/03/12 06:04:05;;;;;;;1.40;1.30;;;18.40;37.80;;;;;;4988437;28;20215;-76
2023/03/12 06:06:33;;;;;;;1.50;1.40;;;18.40;37.80;;;;;;5001403;28;20456;-79
2023/03/12 06:08:59;;;;;;;1.40;1.30;;;18.40;37.80;;;;;;4987021;28;20841;-77
2023/03/12 06:11:24;;;;;;;2.47;2.27;;;18.40;37.80;;;;;;5002142;28;20989;-79
2023/03/12 06:13:50;;;;;;;1.40;1.30;;;18.40;37.80;;;;;;4987947;28;20457;-78
2023/03/12 06:16:21;;;;;;;1.70;1.60;;;18.40;37.90;;;;;;4996371;28;20211;-77
2023/03/12 06:18:47;;;;;;;1.33;1.23;;;18.40;37.80;;;;;;4997519;28;20243;-77
2023/03/12 06:21:15;;;;;;;1.40;1.30;;;18.40;37.80;;;;;;5004719;28;20492;-78
2023/03/12 06:23:41;;;;;;;1.50;1.40;;;18.40;37.80;;;;;;4994974;28;20544;-78
2023/03/12 06:26:08;;;;;;;1.43;1.33;;;18.40;37.80;;;;;;5005511;28;20976;-79
2023/03/12 06:28:34;;;;;;;1.40;1.30;;;18.40;37.80;;;;;;5003678;28;20486;-79
2023/03/12 06:31:00;;;;;;;1.40;1.30;;;18.40;37.80;;;;;;5005232;28;20449;-78
2023/03/12 06:33:26;;;;;;;1.43;1.33;;;18.40;37.80;;;;;;4998010;28;20216;-79
2023/03/12 06:35:56;;;;;;;1.80;1.70;;;18.40;37.80;;;;;;4994368;28;20314;-77
2023/03/12 06:38:22;;;;;;;1.70;1.60;;;18.40;37.80;;;;;;5002707;28;20234;-78
2023/03/12 06:41:15;;;;;;;1.50;1.40;;;18.40;37.80;;;;;;4993781;28;20577;-78
2023/03/12 06:43:42;;;;;;;1.40;1.30;;;18.40;37.80;;;;;;4994623;28;20419;-80
2023/03/12 06:46:10;;;;;;;1.30;1.20;;;18.40;37.80;;;;;;5000189;28;20476;-80
2023/03/12 06:48:36;;;;;;;1.40;1.30;;;18.40;37.80;;;;;;4999564;28;20438;-80
2023/03/12 06:51:05;;;;;;;1.50;1.40;;;18.40;37.80;;;;;;4996276;28;20467;-80
2023/03/12 06:53:31;;;;;;;1.30;1.20;;;18.40;37.80;;;;;;4992017;28;20226;-79
2023/03/12 06:55:57;;;;;;;1.57;1.47;;;18.40;37.80;;;;;;4996773;28;20550;-79
2023/03/12 06:58:23;;;;;;;1.10;1.00;;;18.40;37.80;;;;;;4991113;28;20452;-76
2023/03/12 07:00:49;;;;;;;1.30;1.20;;;18.40;37.80;;;;;;5002985;28;20231;-78
2023/03/12 07:03:14;;;;;;;1.07;1.07;;;18.40;37.80;;;;;;4991819;28;20235;-77
2023/03/12 07:05:43;;;;;;;1.30;1.20;;;18.40;37.80;;;;;;5001022;28;20219;-77
2023/03/12 07:08:09;;;;;;;1.30;1.20;;;18.40;37.80;;;;;;4996525;28;20387;-77
2023/03/12 07:10:34;;;;;;;1.40;1.30;;;18.40;37.80;;;;;;4988810;28;20468;-79
2023/03/12 07:13:00;;;;;;;1.50;1.40;;;18.40;37.80;;;;;;4989816;28;20687;-78
2023/03/12 07:15:25;;;;;;;1.30;1.20;;;18.40;37.80;;;;;;4994627;28;20219;-79
2023/03/12 07:17:51;;;;;;;1.20;1.10;;;18.40;37.80;;;;;;5000534;28;20326;-78
2023/03/12 07:20:17;;;;;;;1.40;1.30;;;18.40;37.80;;;;;;4992372;28;20688;-79
2023/03/12 07:22:42;;;;;;;1.27;1.17;;;18.40;37.80;;;;;;4995020;28;20318;-79
2023/03/12 07:25:08;;;;;;;1.40;1.30;;;18.40;37.80;;;;;;4985526;28;20231;-78
2023/03/12 07:27:34;;;;;;;1.20;1.10;;;18.40;37.80;;;;;;4984785;28;20243;-78
2023/03/12 07:29:59;;;;;;;1.23;1.13;;;18.40;37.80;;;;;;5000336;28;21024;-78
2023/03/12 07:32:26;;;;;;;1.50;1.40;;;18.40;37.80;;;;;;5005948;28;20688;-78
2023/03/12 07:34:52;;;;;;;1.50;1.40;;;18.40;37.80;;;;;;4995918;28;20258;-73
2023/03/12 07:37:17;;;;;;;1.30;1.20;;;18.40;37.80;;;;;;4983993;28;20442;-74
2023/03/12 07:39:44;;;;;;;1.37;1.27;;;18.40;37.80;;;;;;4986751;28;20601;-75
2023/03/12 07:42:11;;;;;;;1.67;1.30;;;18.40;37.80;;;;;;4987281;28;20234;-80
2023/03/12 07:44:37;;;;;;;1.40;1.30;;;18.40;37.80;;;;;;4993789;28;21174;-75
2023/03/12 07:47:03;;;;;;;1.27;1.17;;;18.40;37.90;;;;;;4986492;28;20455;-75
2023/03/12 07:49:28;;;;;;;1.30;1.20;;;18.40;37.80;;;;;;4986914;28;20291;-76
2023/03/12 07:51:54;;;;;;;1.30;1.20;;;18.40;37.80;;;;;;4991991;28;20253;-79
2023/03/12 07:54:19;;;;;;;1.23;1.13;;;18.40;37.80;;;;;;4987785;28;20223;-75
2023/03/12 07:56:45;;;;;;;1.20;1.10;;;18.40;37.80;;;;;;4987309;28;20362;-76
2023/03/12 07:59:10;;;;;;;1.23;1.13;;;18.40;37.80;;;;;;4992071;28;20238;-76
2023/03/12 08:01:36;;;;;;;1.40;1.30;;;18.40;37.80;;;;;;4998368;28;22317;-74
2023/03/12 08:04:02;;;;;;;2.57;1.30;;;18.40;37.80;;;;;;5013154;28;20235;-76
2023/03/12 08:06:28;;;;;;;1.73;1.27;;;18.40;37.90;;;;;;4999063;28;20269;-77
2023/03/12 08:08:54;;;;;;;1.33;1.23;;;18.40;37.80;;;;;;4994586;28;20786;-78
2023/03/12 08:11:20;;;;;;;1.37;1.27;;;18.40;38.00;;;;;;4988483;28;20474;-69
2023/03/12 08:13:45;;;;;;;3.10;1.20;;;18.40;37.90;;;;;;4996725;28;20335;-68
2023/03/12 08:16:11;;;;;;;1.40;1.30;;;18.40;37.80;;;;;;4985425;28;20215;-72
2023/03/12 08:18:37;;;;;;;1.30;1.20;;;18.40;37.80;;;;;;4988353;28;20229;-81
2023/03/12 08:21:03;;;;;;;1.30;1.20;;;18.40;37.80;;;;;;4991460;28;20231;-79
2023/03/12 08:23:28;;;;;;;1.23;1.13;;;18.40;37.90;;;;;;4986633;28;20285;-76
2023/03/12 08:25:54;;;;;;;1.40;1.30;;;18.40;37.90;;;;;;4991714;28;20761;-76
2023/03/12 08:28:21;;;;;;;1.20;1.10;;;18.40;37.90;;;;;;4983761;28;20282;-76
2023/03/12 08:30:48;;;;;;;1.10;1.00;;;18.40;37.80;;;;;;4998797;28;20235;-74
2023/03/12 08:33:14;;;;;;;1.20;1.10;;;18.40;37.80;;;;;;4997086;28;20546;-70
2023/03/12 08:35:40;;;;;;;9.20;3.53;;;18.40;37.90;;;;;;4989376;28;20666;-71
2023/03/12 08:38:05;;;;;;;16.07;3.13;;;18.40;37.80;;;;;;4983824;28;20700;-72
2023/03/12 08:40:31;;;;;;;7.83;2.37;;;18.40;37.80;;;;;;4993524;28;20234;-70
2023/03/12 08:42:56;;;;;;;15.97;4.03;;;18.50;37.90;;;;;;4989341;28;20249;-66
2023/03/12 08:45:22;;;;;;;9.90;3.00;;;18.50;37.90;;;;;;5000859;28;20243;-74
2023/03/12 08:47:49;;;;;;;3.97;2.13;;;18.50;37.90;;;;;;4991000;28;20306;-75
2023/03/12 08:50:20;;;;;;;3.30;1.90;;;18.50;37.90;;;;;;4991797;28;20243;-72
2023/03/12 08:52:45;;;;;;;13.53;2.10;;;18.50;37.90;;;;;;4986996;28;20490;-76
2023/03/12 08:55:11;;;;;;;7.13;1.97;;;18.50;37.90;;;;;;4992146;28;20487;-74
2023/03/12 08:57:38;;;;;;;8.27;2.03;;;18.40;37.80;;;;;;4991202;28;20311;-75
2023/03/12 09:00:10;;;;;;;6.50;2.03;;;18.40;37.80;;;;;;4997012;28;20607;-73
2023/03/12 09:02:38;;;;;;;4.53;2.00;;;18.40;37.80;;;;;;4994557;28;20466;-74
2023/03/12 09:05:04;;;;;;;5.27;1.80;;;18.40;37.80;;;;;;4995347;28;20451;-76
2023/03/12 09:07:31;;;;;;;3.00;2.13;;;18.40;37.80;;;;;;4988802;28;21287;-76
2023/03/12 09:09:56;;;;;;;4.03;1.90;;;18.40;37.80;;;;;;4996940;28;20446;-77
2023/03/12 09:12:23;;;;;;;3.20;1.70;;;18.40;37.80;;;;;;4992957;28;20453;-76
2023/03/12 09:14:49;;;;;;;3.70;1.63;;;18.40;37.80;;;;;;4989144;28;20219;-77
2023/03/12 09:17:15;;;;;;;1.70;1.60;;;18.40;37.80;;;;;;4985388;28;20456;-77
2023/03/12 09:19:40;;;;;;;2.37;1.80;;;18.40;37.80;;;;;;4985989;28;20482;-76
2023/03/12 09:22:06;;;;;;;2.23;1.67;;;18.40;37.80;;;;;;4988332;28;20215;-77
2023/03/12 09:24:31;;;;;;;5.47;2.13;;;18.40;37.90;;;;;;4992730;28;20223;-76
2023/03/12 09:26:57;;;;;;;1.90;1.60;;;18.40;37.80;;;;;;5000556;28;20289;-77
2023/03/12 09:29:23;;;;;;;2.67;1.60;;;18.40;37.80;;;;;;4990987;28;20569;-77
2023/03/12 09:31:49;;;;;;;2.43;1.90;;;18.40;37.80;;;;;;4991984;28;20227;-77
2023/03/12 09:34:14;;;;;;;1.50;1.40;;;18.40;37.80;;;;;;4988679;28;20508;-77
2023/03/12 09:36:40;;;;;;;2.40;1.60;;;18.40;37.80;;;;;;4991042;28;20255;-77
2023/03/12 09:39:05;;;;;;;2.87;1.50;;;18.40;37.80;;;;;;4985846;28;20224;-77
2023/03/12 09:41:37;;;;;;;1.83;1.30;;;18.40;37.80;;;;;;4971857;28;20704;-77
2023/03/12 09:44:23;;;;;;;2.40;1.53;;;18.40;37.80;;;;;;4982257;28;20217;-77
2023/03/12 09:47:24;;;;;;;1.50;1.40;;;18.40;37.80;;;;;;4980739;28;20467;-77
2023/03/12 09:50:12;;;;;;;3.80;1.60;;;18.40;37.80;;;;;;4991520;28;20486;-77
2023/03/12 09:52:50;;;;;;;1.60;1.40;;;18.40;37.90;;;;;;4991174;28;20438;-77
2023/03/12 09:55:19;;;;;;;1.83;1.63;;;18.40;37.90;;;;;;4990838;28;21128;-76
2023/03/12 09:57:47;;;;;;;3.30;1.60;;;18.40;38.70;;;;;;4987784;28;20441;-76
2023/03/12 10:00:16;;;;;;;1.50;1.40;;;18.40;38.10;;;;;;4981508;28;20497;-77
2023/03/12 10:03:00;;;;;;;1.57;1.47;;;18.40;37.90;;;;;;4978766;28;20420;-76
2023/03/12 10:05:36;;;;;;;1.53;1.20;;;18.40;38.00;;;;;;4994550;28;20460;-74
2023/03/12 10:08:23;;;;;;;23.57;4.07;;;18.40;37.90;;;;;;4990872;28;20841;-75
2023/03/12 10:11:06;;;;;;;116.80;10.97;;;18.40;38.00;;;;;;5002496;28;20518;-76
2023/03/12 10:13:32;;;;;;;97.10;7.40;;;18.40;38.10;;;;;;4991531;28;20440;-69
2023/03/12 10:16:04;;;;;;;59.03;7.70;;;18.50;38.20;;;;;;4996149;28;20467;-74
2023/03/12 10:18:41;;;;;;;120.27;11.70;;;18.50;38.30;;;;;;4990906;28;20238;-78
2023/03/12 10:21:36;;;;;;;52.53;8.60;;;18.50;38.30;;;;;;4991175;28;20460;-69
2023/03/12 10:24:21;;;;;;;34.57;7.07;;;18.60;38.30;;;;;;4989223;28;20502;-70
2023/03/12 10:26:50;;;;;;;26.07;6.80;;;18.60;38.40;;;;;;5002448;28;20449;-73
2023/03/12 10:29:23;;;;;;;9.63;3.80;;;18.60;38.50;;;;;;5002931;28;20423;-72
2023/03/12 10:31:55;;;;;;;5.90;2.97;;;18.60;38.50;;;;;;4998851;28;20556;-76
2023/03/12 10:34:34;;;;;;;6.03;3.17;;;18.60;38.50;;;;;;5000438;28;20558;-70
2023/03/12 10:37:15;;;;;;;13.97;3.60;;;18.60;38.50;;;;;;4995082;28;20472;-64
2023/03/12 10:39:41;;;;;;;13.63;2.90;;;18.60;38.50;;;;;;5008432;28;20992;-66
2023/03/12 10:42:22;;;;;;;21.03;3.57;;;18.70;38.60;;;;;;4999361;28;20461;-67
2023/03/12 10:44:52;;;;;;;16.63;3.83;;;18.70;38.50;;;;;;4996604;28;20281;-68
2023/03/12 10:47:25;;;;;;;13.80;3.10;;;18.70;38.60;;;;;;4985652;28;20556;-67
2023/03/12 10:49:52;;;;;;;8.20;3.10;;;18.70;38.60;;;;;;4982714;28;20984;-71
2023/03/12 10:52:20;;;;;;;6.60;2.30;;;18.70;38.60;;;;;;4992437;28;20465;-72
2023/03/12 10:54:49;;;;;;;8.53;2.20;;;18.70;38.60;;;;;;4994659;28;20465;-73
2023/03/12 10:57:15;;;;;;;4.20;2.00;;;18.70;38.60;;;;;;4995677;28;20505;-72
2023/03/12 10:59:44;;;;;;;6.50;2.17;;;18.70;38.60;;;;;;4990787;28;21001;-77
2023/03/12 11:02:36;;;;;;;2.60;2.10;;;18.70;38.60;;;;;;4992210;28;20561;-79
2023/03/12 11:05:31;;;;;;;5.40;2.27;;;18.60;38.50;;;;;;4987550;28;20472;-79
2023/03/12 11:07:59;;;;;;;6.00;2.00;;;18.70;38.70;;;;;;4994249;28;22051;-80
2023/03/12 11:10:42;;;;;;;5.97;1.93;;;18.70;38.70;;;;;;4996273;28;20567;-78
2023/03/12 11:13:29;;;;;;;9.00;1.80;;;18.60;38.50;;;;;;4990916;28;20468;-78
2023/03/12 11:15:57;;;;;;;3.83;2.33;;;18.60;38.50;;;;;;4985359;28;20458;-78
2023/03/12 11:18:24;;;;;;;7.00;2.77;;;18.60;38.50;;;;;;4985417;28;20572;-77
2023/03/12 11:20:55;;;;;;;3.10;1.90;;;18.70;38.70;;;;;;4996323;28;20454;-78
2023/03/12 11:23:28;;;;;;;3.63;1.90;;;18.60;38.60;;;;;;4992854;28;20935;-77
2023/03/12 11:25:59;;;;;;;2.80;1.60;;;18.60;38.50;;;;;;4992252;28;20466;-74
2023/03/12 11:28:37;;;;;;;6.47;1.70;;;18.60;38.60;;;;;;4990818;28;20534;-76
2023/03/12 11:31:08;;;;;;;4.90;2.63;;;18.60;38.50;;;;;;4992750;28;20464;-80
2023/03/12 11:33:33;;;;;;;7.00;2.63;;;18.60;38.60;;;;;;4998378;28;20424;-79
2023/03/12 11:36:28;;;;;;;5.00;1.70;;;18.60;38.50;;;;;;4994398;28;20482;-81
2023/03/12 11:39:24;;;;;;;2.27;1.57;;;18.70;38.60;;;;;;4995299;28;20337;-80
2023/03/12 11:42:05;;;;;;;5.03;1.73;;;18.60;38.40;;;;;;4995344;28;20492;-70
2023/03/12 11:44:40;;;;;;;5.90;1.90;;;18.60;38.40;;;;;;4990512;28;20976;-80
2023/03/12 11:47:31;;;;;;;4.20;1.83;;;18.60;38.40;;;;;;4987443;28;20552;-82
2023/03/12 11:50:26;;;;;;;4.53;1.97;;;18.60;38.40;;;;;;4994177;28;20424;-75
2023/03/12 11:53:02;;;;;;;6.70;2.07;;;18.60;38.20;;;;;;5015097;28;20427;-72
2023/03/12 11:56:07;;;;;;;5.30;1.90;;;18.60;38.00;;;;;;5001330;28;20463;-76
2023/03/12 11:58:56;;;;;;;6.27;2.00;;;18.60;38.00;;;;;;4998453;28;20451;-80
2023/03/12 12:02:09;;;;;;;5.20;1.70;;;18.70;38.10;;;;;;5018146;28;21528;-81
2023/03/12 12:05:06;;;;;;;5.27;1.70;;;18.70;38.10;;;;;;4984649;28;20556;-79
2023/03/12 12:07:57;;;;;;;4.73;2.23;;;18.70;38.10;;;;;;4993673;28;20536;-79
2023/03/12 12:10:38;;;;;;;2.60;1.30;;;18.80;38.20;;;;;;4996128;28;20436;-75
2023/03/12 12:13:30;;;;;;;4.30;1.80;;;18.80;38.20;;;;;;4986324;28;20434;-78
2023/03/12 12:16:20;;;;;;;6.57;1.80;;;18.80;38.20;;;;;;4986020;28;20953;-76
2023/03/12 12:19:18;;;;;;;3.70;2.43;;;18.80;38.20;;;;;;4989496;28;20461;-75
2023/03/12 12:22:02;;;;;;;5.97;2.60;;;18.80;38.20;;;;;;4986543;28;20492;-75
2023/03/12 12:25:01;;;;;;;7.97;1.77;;;18.80;38.20;;;;;;4986106;28;20962;-74
2023/03/12 12:27:31;;;;;;;3.07;1.63;;;18.70;38.80;;;;;;4983771;28;20446;-74
2023/03/12 12:30:17;;;;;;;1.97;1.47;;;18.70;38.10;;;;;;4988446;28;20431;-74
2023/03/12 12:33:26;;;;;;;1.73;1.50;;;18.70;38.10;;;;;;4986246;28;21012;-76
2023/03/12 12:35:52;;;;;;;3.37;1.70;;;18.60;38.00;;;;;;4989254;28;20522;-73
2023/03/12 12:38:20;;;;;;;2.07;1.80;;;18.60;38.00;;;;;;4993036;28;22563;-74
2023/03/12 12:40:48;;;;;;;3.83;1.37;;;18.60;38.00;;;;;;4995223;28;20235;-74
2023/03/12 12:43:27;;;;;;;3.50;1.80;;;18.60;38.00;;;;;;5027333;28;20427;-74
2023/03/12 12:45:56;;;;;;;3.10;1.40;;;18.60;38.00;;;;;;4996430;28;20432;-74
2023/03/12 12:48:38;;;;;;;2.60;1.50;;;18.60;38.00;;;;;;4985820;28;20474;-77
2023/03/12 12:51:06;;;;;;;1.63;1.53;;;18.50;37.90;;;;;;4993700;28;20462;-76
2023/03/12 12:53:42;;;;;;;2.80;1.40;;;18.50;37.90;;;;;;4994003;28;20457;-74
2023/03/12 12:56:10;;;;;;;3.47;1.60;;;18.50;37.90;;;;;;4987567;28;20452;-76
2023/03/12 12:58:48;;;;;;;3.20;1.50;;;18.50;37.90;;;;;;4998040;28;20476;-75